You are not logged in, Click here to log in
ICAO: RJCH Country: 日本北海道函館市
Latitude: 41.7756 Longitude: 140.815
Total Arrivals: 16 Total Departures: 14
Latest Arrival: EH499 (RJGG-RJCH)鈺友. 陳 Latest Departure: 4MEH85 (RJCH-RJAA)鈺友. 陳
Scenery:
METAR : RJCH 261100Z 02004KT 320V040 9999 FEW040 SCT/// 17/11 Q1014

函館空港HKD